sensor_id;sensor_type;location;lat;lon;timestamp;temperature;humidity
21199;DHT22;10757;51.038;3.712;2022-09-30T00:01:50;10.80;99.90
21199;DHT22;10757;51.038;3.712;2022-09-30T00:04:22;10.60;99.90
21199;DHT22;10757;51.038;3.712;2022-09-30T00:06:48;10.60;99.90
21199;DHT22;10757;51.038;3.712;2022-09-30T00:09:15;10.50;99.90
21199;DHT22;10757;51.038;3.712;2022-09-30T00:11:43;10.50;99.90
21199;DHT22;10757;51.038;3.712;2022-09-30T00:14:17;10.40;99.90
21199;DHT22;10757;51.038;3.712;2022-09-30T00:16:44;10.40;99.90
21199;DHT22;10757;51.038;3.712;2022-09-30T00:19:10;10.50;99.90
21199;DHT22;10757;51.038;3.712;2022-09-30T00:21:36;10.80;99.90
21199;DHT22;10757;51.038;3.712;2022-09-30T00:24:03;11.00;99.90
21199;DHT22;10757;51.038;3.712;2022-09-30T00:26:29;11.20;99.90
21199;DHT22;10757;51.038;3.712;2022-09-30T00:28:58;11.00;99.90
21199;DHT22;10757;51.038;3.712;2022-09-30T00:31:28;10.80;99.90
21199;DHT22;10757;51.038;3.712;2022-09-30T00:33:54;10.60;99.90
21199;DHT22;10757;51.038;3.712;2022-09-30T00:36:53;10.30;99.90
21199;DHT22;10757;51.038;3.712;2022-09-30T00:39:28;10.20;99.90
21199;DHT22;10757;51.038;3.712;2022-09-30T00:42:09;10.20;99.90
21199;DHT22;10757;51.038;3.712;2022-09-30T00:45:04;10.30;99.90
21199;DHT22;10757;51.038;3.712;2022-09-30T00:52:51;10.20;99.90
21199;DHT22;10757;51.038;3.712;2022-09-30T00:55:57;10.20;99.90
21199;DHT22;10757;51.038;3.712;2022-09-30T00:58:27;10.20;99.90
21199;DHT22;10757;51.038;3.712;2022-09-30T01:00:56;10.40;99.90
21199;DHT22;10757;51.038;3.712;2022-09-30T01:03:27;10.60;99.90
21199;DHT22;10757;51.038;3.712;2022-09-30T01:05:55;10.70;99.90
21199;DHT22;10757;51.038;3.712;2022-09-30T01:08:23;10.70;99.90
21199;DHT22;10757;51.038;3.712;2022-09-30T01:10:50;10.50;99.90
21199;DHT22;10757;51.038;3.712;2022-09-30T01:13:17;10.40;99.90
21199;DHT22;10757;51.038;3.712;2022-09-30T01:27:10;10.40;99.90
21199;DHT22;10757;51.038;3.712;2022-09-30T01:40:31;10.00;99.90
21199;DHT22;10757;51.038;3.712;2022-09-30T01:43:52;10.00;99.90
21199;DHT22;10757;51.038;3.712;2022-09-30T01:49:22;10.10;99.90
21199;DHT22;10757;51.038;3.712;2022-09-30T01:52:02;10.00;99.90
21199;DHT22;10757;51.038;3.712;2022-09-30T01:54:46;10.00;99.90
21199;DHT22;10757;51.038;3.712;2022-09-30T01:57:27;10.00;99.90
21199;DHT22;10757;51.038;3.712;2022-09-30T02:00:07;10.20;99.90
21199;DHT22;10757;51.038;3.712;2022-09-30T02:02:41;10.20;99.90
21199;DHT22;10757;51.038;3.712;2022-09-30T02:05:36;10.30;99.90
21199;DHT22;10757;51.038;3.712;2022-09-30T02:08:10;10.40;99.90
21199;DHT22;10757;51.038;3.712;2022-09-30T02:10:45;10.30;99.90
21199;DHT22;10757;51.038;3.712;2022-09-30T02:13:15;10.30;99.90
21199;DHT22;10757;51.038;3.712;2022-09-30T02:15:48;10.40;99.90
21199;DHT22;10757;51.038;3.712;2022-09-30T02:18:37;10.10;99.90
21199;DHT22;10757;51.038;3.712;2022-09-30T02:21:05;10.00;99.90
21199;DHT22;10757;51.038;3.712;2022-09-30T02:23:37;10.00;99.90
21199;DHT22;10757;51.038;3.712;2022-09-30T02:26:08;10.30;99.90
21199;DHT22;10757;51.038;3.712;2022-09-30T02:28:43;10.20;99.90
21199;DHT22;10757;51.038;3.712;2022-09-30T02:33:56;10.30;99.90
21199;DHT22;10757;51.038;3.712;2022-09-30T02:36:39;10.20;99.90
21199;DHT22;10757;51.038;3.712;2022-09-30T02:39:14;10.10;99.90
21199;DHT22;10757;51.038;3.712;2022-09-30T02:41:54;10.10;99.90
21199;DHT22;10757;51.038;3.712;2022-09-30T02:44:21;10.30;99.90
21199;DHT22;10757;51.038;3.712;2022-09-30T02:47:16;10.30;99.90
21199;DHT22;10757;51.038;3.712;2022-09-30T02:49:57;10.30;99.90
21199;DHT22;10757;51.038;3.712;2022-09-30T02:55:47;10.30;99.90
21199;DHT22;10757;51.038;3.712;2022-09-30T02:58:19;10.20;99.90
21199;DHT22;10757;51.038;3.712;2022-09-30T03:00:47;10.30;99.90
21199;DHT22;10757;51.038;3.712;2022-09-30T03:03:23;10.30;99.90
21199;DHT22;10757;51.038;3.712;2022-09-30T03:05:57;10.20;99.90
21199;DHT22;10757;51.038;3.712;2022-09-30T03:08:23;10.30;99.90
21199;DHT22;10757;51.038;3.712;2022-09-30T03:11:02;10.10;99.90
21199;DHT22;10757;51.038;3.712;2022-09-30T03:28:34;9.80;99.90
21199;DHT22;10757;51.038;3.712;2022-09-30T03:33:46;9.70;99.90
21199;DHT22;10757;51.038;3.712;2022-09-30T03:36:27;9.80;99.90
21199;DHT22;10757;51.038;3.712;2022-09-30T03:39:19;9.90;99.90
21199;DHT22;10757;51.038;3.712;2022-09-30T03:42:12;9.80;99.90
21199;DHT22;10757;51.038;3.712;2022-09-30T03:48:04;9.70;99.90
21199;DHT22;10757;51.038;3.712;2022-09-30T03:50:34;9.70;99.90
21199;DHT22;10757;51.038;3.712;2022-09-30T03:53:03;9.70;99.90
21199;DHT22;10757;51.038;3.712;2022-09-30T03:55:46;9.70;99.90
21199;DHT22;10757;51.038;3.712;2022-09-30T03:58:28;9.60;99.90
21199;DHT22;10757;51.038;3.712;2022-09-30T04:00:58;9.60;99.90
21199;DHT22;10757;51.038;3.712;2022-09-30T04:03:23;9.70;99.90
21199;DHT22;10757;51.038;3.712;2022-09-30T04:06:08;9.80;99.90
21199;DHT22;10757;51.038;3.712;2022-09-30T04:08:36;9.70;99.90
21199;DHT22;10757;51.038;3.712;2022-09-30T04:11:03;9.70;99.90
21199;DHT22;10757;51.038;3.712;2022-09-30T04:13:31;9.70;99.90
21199;DHT22;10757;51.038;3.712;2022-09-30T04:15:56;9.80;99.90
21199;DHT22;10757;51.038;3.712;2022-09-30T04:18:23;10.00;99.90
21199;DHT22;10757;51.038;3.712;2022-09-30T04:20:49;10.00;99.90
21199;DHT22;10757;51.038;3.712;2022-09-30T04:23:20;10.00;99.90
21199;DHT22;10757;51.038;3.712;2022-09-30T04:25:57;10.10;99.90
21199;DHT22;10757;51.038;3.712;2022-09-30T04:28:23;10.00;99.90
21199;DHT22;10757;51.038;3.712;2022-09-30T04:30:48;9.90;99.90
21199;DHT22;10757;51.038;3.712;2022-09-30T04:33:15;9.90;99.90
21199;DHT22;10757;51.038;3.712;2022-09-30T04:36:03;9.90;99.90
21199;DHT22;10757;51.038;3.712;2022-09-30T04:38:35;9.90;99.90
21199;DHT22;10757;51.038;3.712;2022-09-30T04:41:06;9.90;99.90
21199;DHT22;10757;51.038;3.712;2022-09-30T04:43:33;10.00;99.90
21199;DHT22;10757;51.038;3.712;2022-09-30T04:46:02;10.20;99.90
21199;DHT22;10757;51.038;3.712;2022-09-30T04:48:31;10.20;99.90
21199;DHT22;10757;51.038;3.712;2022-09-30T04:50:58;10.30;99.90
21199;DHT22;10757;51.038;3.712;2022-09-30T04:53:26;10.30;99.90
21199;DHT22;10757;51.038;3.712;2022-09-30T04:56:02;10.00;99.90
21199;DHT22;10757;51.038;3.712;2022-09-30T04:58:29;9.90;99.90
21199;DHT22;10757;51.038;3.712;2022-09-30T05:01:07;9.90;99.90
21199;DHT22;10757;51.038;3.712;2022-09-30T05:03:33;10.00;99.90
21199;DHT22;10757;51.038;3.712;2022-09-30T05:06:13;10.10;99.90
21199;DHT22;10757;51.038;3.712;2022-09-30T05:08:43;10.10;99.90
21199;DHT22;10757;51.038;3.712;2022-09-30T05:11:14;10.00;99.90
21199;DHT22;10757;51.038;3.712;2022-09-30T05:13:43;10.00;99.90
21199;DHT22;10757;51.038;3.712;2022-09-30T05:16:10;9.80;99.90
21199;DHT22;10757;51.038;3.712;2022-09-30T05:18:38;9.70;99.90
21199;DHT22;10757;51.038;3.712;2022-09-30T05:21:17;9.60;99.90
21199;DHT22;10757;51.038;3.712;2022-09-30T05:23:46;9.60;99.90
21199;DHT22;10757;51.038;3.712;2022-09-30T05:26:16;9.60;99.90
21199;DHT22;10757;51.038;3.712;2022-09-30T05:28:43;9.60;99.90
21199;DHT22;10757;51.038;3.712;2022-09-30T05:31:12;9.80;99.90
21199;DHT22;10757;51.038;3.712;2022-09-30T05:33:46;9.80;99.90
21199;DHT22;10757;51.038;3.712;2022-09-30T05:36:14;9.90;99.90
21199;DHT22;10757;51.038;3.712;2022-09-30T05:38:41;9.90;99.90
21199;DHT22;10757;51.038;3.712;2022-09-30T05:41:19;9.90;99.90
21199;DHT22;10757;51.038;3.712;2022-09-30T05:43:46;9.90;99.90
21199;DHT22;10757;51.038;3.712;2022-09-30T05:46:18;10.00;99.90
21199;DHT22;10757;51.038;3.712;2022-09-30T05:48:52;10.00;99.90
21199;DHT22;10757;51.038;3.712;2022-09-30T05:51:20;9.90;99.90
21199;DHT22;10757;51.038;3.712;2022-09-30T05:53:47;10.00;99.90
21199;DHT22;10757;51.038;3.712;2022-09-30T05:56:15;10.00;99.90
21199;DHT22;10757;51.038;3.712;2022-09-30T05:58:53;10.00;99.90
21199;DHT22;10757;51.038;3.712;2022-09-30T06:01:20;10.10;99.90
21199;DHT22;10757;51.038;3.712;2022-09-30T06:03:53;10.00;99.90
21199;DHT22;10757;51.038;3.712;2022-09-30T06:06:19;10.00;99.90
21199;DHT22;10757;51.038;3.712;2022-09-30T06:08:46;10.00;99.90
21199;DHT22;10757;51.038;3.712;2022-09-30T06:11:19;10.10;99.90
21199;DHT22;10757;51.038;3.712;2022-09-30T06:13:46;10.20;99.90
21199;DHT22;10757;51.038;3.712;2022-09-30T06:16:13;10.20;99.90
21199;DHT22;10757;51.038;3.712;2022-09-30T06:18:39;10.20;99.90
21199;DHT22;10757;51.038;3.712;2022-09-30T06:21:16;10.30;99.90
21199;DHT22;10757;51.038;3.712;2022-09-30T06:23:44;10.30;99.90
21199;DHT22;10757;51.038;3.712;2022-09-30T06:26:12;10.40;99.90
21199;DHT22;10757;51.038;3.712;2022-09-30T06:28:45;10.40;99.90
21199;DHT22;10757;51.038;3.712;2022-09-30T06:31:11;10.30;99.90
21199;DHT22;10757;51.038;3.712;2022-09-30T06:33:44;10.20;99.90
21199;DHT22;10757;51.038;3.712;2022-09-30T06:36:22;10.20;99.90
21199;DHT22;10757;51.038;3.712;2022-09-30T06:38:48;10.30;99.90
21199;DHT22;10757;51.038;3.712;2022-09-30T06:41:33;10.40;99.90
21199;DHT22;10757;51.038;3.712;2022-09-30T06:44:02;10.40;99.90
21199;DHT22;10757;51.038;3.712;2022-09-30T06:46:38;10.50;99.90
21199;DHT22;10757;51.038;3.712;2022-09-30T06:49:04;10.50;99.90
21199;DHT22;10757;51.038;3.712;2022-09-30T06:51:31;10.60;99.90
21199;DHT22;10757;51.038;3.712;2022-09-30T06:53:58;10.60;99.90
21199;DHT22;10757;51.038;3.712;2022-09-30T06:56:30;10.60;99.90
21199;DHT22;10757;51.038;3.712;2022-09-30T06:58:56;10.70;99.90
21199;DHT22;10757;51.038;3.712;2022-09-30T07:01:22;10.90;99.90
21199;DHT22;10757;51.038;3.712;2022-09-30T07:03:56;10.90;99.90
21199;DHT22;10757;51.038;3.712;2022-09-30T07:06:30;11.20;99.90
21199;DHT22;10757;51.038;3.712;2022-09-30T07:08:57;11.30;99.90
21199;DHT22;10757;51.038;3.712;2022-09-30T07:11:23;11.40;99.90
21199;DHT22;10757;51.038;3.712;2022-09-30T07:13:51;11.40;99.90
21199;DHT22;10757;51.038;3.712;2022-09-30T07:16:18;11.40;99.90
21199;DHT22;10757;51.038;3.712;2022-09-30T07:18:48;11.50;99.90
21199;DHT22;10757;51.038;3.712;2022-09-30T07:21:15;11.60;99.90
21199;DHT22;10757;51.038;3.712;2022-09-30T07:23:45;11.60;99.90
21199;DHT22;10757;51.038;3.712;2022-09-30T07:26:21;11.70;99.90
21199;DHT22;10757;51.038;3.712;2022-09-30T07:28:48;11.70;99.90
21199;DHT22;10757;51.038;3.712;2022-09-30T07:31:22;11.70;99.90
21199;DHT22;10757;51.038;3.712;2022-09-30T07:33:48;11.90;99.90
21199;DHT22;10757;51.038;3.712;2022-09-30T07:36:28;12.00;99.90
21199;DHT22;10757;51.038;3.712;2022-09-30T07:38:58;11.90;99.90
21199;DHT22;10757;51.038;3.712;2022-09-30T07:41:28;12.10;99.90
21199;DHT22;10757;51.038;3.712;2022-09-30T07:43:55;12.10;99.90
21199;DHT22;10757;51.038;3.712;2022-09-30T07:46:26;12.30;99.90
21199;DHT22;10757;51.038;3.712;2022-09-30T07:48:59;12.30;99.90
21199;DHT22;10757;51.038;3.712;2022-09-30T07:51:34;12.50;99.90
21199;DHT22;10757;51.038;3.712;2022-09-30T07:54:14;12.70;99.90
21199;DHT22;10757;51.038;3.712;2022-09-30T07:56:42;12.80;99.90
21199;DHT22;10757;51.038;3.712;2022-09-30T07:59:09;13.00;99.90
21199;DHT22;10757;51.038;3.712;2022-09-30T08:01:35;13.00;99.90
21199;DHT22;10757;51.038;3.712;2022-09-30T08:04:05;13.10;99.90
21199;DHT22;10757;51.038;3.712;2022-09-30T08:06:52;13.30;99.90
21199;DHT22;10757;51.038;3.712;2022-09-30T08:09:21;13.30;99.90
21199;DHT22;10757;51.038;3.712;2022-09-30T08:11:49;13.40;99.90
21199;DHT22;10757;51.038;3.712;2022-09-30T08:14:22;13.40;99.90
21199;DHT22;10757;51.038;3.712;2022-09-30T08:16:51;13.40;99.90
21199;DHT22;10757;51.038;3.712;2022-09-30T08:19:22;13.50;99.90
21199;DHT22;10757;51.038;3.712;2022-09-30T08:21:48;13.70;99.90
21199;DHT22;10757;51.038;3.712;2022-09-30T08:24:17;13.70;99.90
21199;DHT22;10757;51.038;3.712;2022-09-30T08:26:44;13.90;99.90
21199;DHT22;10757;51.038;3.712;2022-09-30T08:29:11;13.90;99.90
21199;DHT22;10757;51.038;3.712;2022-09-30T08:34:17;14.20;99.90
21199;DHT22;10757;51.038;3.712;2022-09-30T08:36:43;14.40;99.90
21199;DHT22;10757;51.038;3.712;2022-09-30T08:39:11;14.50;99.90
21199;DHT22;10757;51.038;3.712;2022-09-30T08:41:59;14.60;99.90
21199;DHT22;10757;51.038;3.712;2022-09-30T08:44:41;14.60;99.90
21199;DHT22;10757;51.038;3.712;2022-09-30T08:47:19;14.70;99.90
21199;DHT22;10757;51.038;3.712;2022-09-30T08:52:44;15.00;99.90
21199;DHT22;10757;51.038;3.712;2022-09-30T08:55:23;15.10;99.90
21199;DHT22;10757;51.038;3.712;2022-09-30T08:57:51;15.20;99.90
21199;DHT22;10757;51.038;3.712;2022-09-30T09:00:19;15.30;99.90
21199;DHT22;10757;51.038;3.712;2022-09-30T09:02:57;15.30;99.90
21199;DHT22;10757;51.038;3.712;2022-09-30T09:08:03;15.70;99.90
21199;DHT22;10757;51.038;3.712;2022-09-30T09:10:37;15.90;99.90
21199;DHT22;10757;51.038;3.712;2022-09-30T09:13:18;16.00;99.90
21199;DHT22;10757;51.038;3.712;2022-09-30T09:23:52;16.20;99.90
21199;DHT22;10757;51.038;3.712;2022-09-30T09:26:21;16.40;99.90
21199;DHT22;10757;51.038;3.712;2022-09-30T09:29:07;16.20;99.90
21199;DHT22;10757;51.038;3.712;2022-09-30T09:31:35;16.30;99.90
21199;DHT22;10757;51.038;3.712;2022-09-30T09:34:11;16.50;99.90
21199;DHT22;10757;51.038;3.712;2022-09-30T09:47:53;17.20;99.90
21199;DHT22;10757;51.038;3.712;2022-09-30T09:50:50;17.20;99.90
21199;DHT22;10757;51.038;3.712;2022-09-30T09:56:19;17.10;99.90
21199;DHT22;10757;51.038;3.712;2022-09-30T09:59:15;17.10;99.90
21199;DHT22;10757;51.038;3.712;2022-09-30T10:04:26;17.10;99.90
21199;DHT22;10757;51.038;3.712;2022-09-30T10:06:59;17.10;99.90
21199;DHT22;10757;51.038;3.712;2022-09-30T10:09:27;17.10;99.90
21199;DHT22;10757;51.038;3.712;2022-09-30T10:14:46;17.20;99.90
21199;DHT22;10757;51.038;3.712;2022-09-30T10:17:26;17.50;99.90
21199;DHT22;10757;51.038;3.712;2022-09-30T10:22:40;18.10;99.90
21199;DHT22;10757;51.038;3.712;2022-09-30T10:25:18;18.10;99.90
21199;DHT22;10757;51.038;3.712;2022-09-30T10:27:55;18.00;99.90
21199;DHT22;10757;51.038;3.712;2022-09-30T10:30:44;18.30;99.90
21199;DHT22;10757;51.038;3.712;2022-09-30T10:33:15;18.30;99.90
21199;DHT22;10757;51.038;3.712;2022-09-30T10:36:08;18.30;99.90
21199;DHT22;10757;51.038;3.712;2022-09-30T10:38:36;18.20;99.90
21199;DHT22;10757;51.038;3.712;2022-09-30T10:41:04;17.80;99.90
21199;DHT22;10757;51.038;3.712;2022-09-30T10:43:41;17.90;99.90
21199;DHT22;10757;51.038;3.712;2022-09-30T10:46:08;18.00;99.90
21199;DHT22;10757;51.038;3.712;2022-09-30T10:48:35;18.00;99.90
21199;DHT22;10757;51.038;3.712;2022-09-30T10:51:03;18.10;99.90
21199;DHT22;10757;51.038;3.712;2022-09-30T10:53:40;18.20;99.90
21199;DHT22;10757;51.038;3.712;2022-09-30T10:56:06;18.30;99.90
21199;DHT22;10757;51.038;3.712;2022-09-30T10:58:50;18.50;99.90
21199;DHT22;10757;51.038;3.712;2022-09-30T11:01:53;18.60;99.90
21199;DHT22;10757;51.038;3.712;2022-09-30T11:04:28;18.60;99.90
21199;DHT22;10757;51.038;3.712;2022-09-30T11:07:23;18.90;99.90
21199;DHT22;10757;51.038;3.712;2022-09-30T11:13:16;18.80;99.90
21199;DHT22;10757;51.038;3.712;2022-09-30T11:16:23;18.80;99.90
21199;DHT22;10757;51.038;3.712;2022-09-30T11:24:25;19.40;99.90
21199;DHT22;10757;51.038;3.712;2022-09-30T11:30:17;19.40;99.90
21199;DHT22;10757;51.038;3.712;2022-09-30T11:33:11;19.40;99.90
21199;DHT22;10757;51.038;3.712;2022-09-30T11:41:51;18.70;99.90
21199;DHT22;10757;51.038;3.712;2022-09-30T11:44:55;18.70;99.90
21199;DHT22;10757;51.038;3.712;2022-09-30T11:47:50;18.80;99.90
21199;DHT22;10757;51.038;3.712;2022-09-30T11:56:39;18.50;99.90
21199;DHT22;10757;51.038;3.712;2022-09-30T12:02:35;18.60;99.90
21199;DHT22;10757;51.038;3.712;2022-09-30T12:05:25;18.60;99.90
21199;DHT22;10757;51.038;3.712;2022-09-30T12:08:14;18.60;99.90
21199;DHT22;10757;51.038;3.712;2022-09-30T12:10:55;18.80;99.90
21199;DHT22;10757;51.038;3.712;2022-09-30T12:13:42;18.90;99.90
21199;DHT22;10757;51.038;3.712;2022-09-30T12:16:23;19.00;99.90
21199;DHT22;10757;51.038;3.712;2022-09-30T12:19:12;19.00;99.90
21199;DHT22;10757;51.038;3.712;2022-09-30T12:24:47;19.40;99.90
21199;DHT22;10757;51.038;3.712;2022-09-30T12:27:51;19.20;99.90
21199;DHT22;10757;51.038;3.712;2022-09-30T12:30:22;19.10;99.90
21199;DHT22;10757;51.038;3.712;2022-09-30T12:33:16;19.10;99.90
21199;DHT22;10757;51.038;3.712;2022-09-30T12:50:34;19.60;99.90
21199;DHT22;10757;51.038;3.712;2022-09-30T12:53:24;19.60;99.90
21199;DHT22;10757;51.038;3.712;2022-09-30T12:55:52;19.70;99.90
21199;DHT22;10757;51.038;3.712;2022-09-30T12:58:33;19.70;99.90
21199;DHT22;10757;51.038;3.712;2022-09-30T13:14:41;19.50;99.90
21199;DHT22;10757;51.038;3.712;2022-09-30T13:19:47;19.40;99.90
21199;DHT22;10757;51.038;3.712;2022-09-30T13:25:13;20.00;99.90
21199;DHT22;10757;51.038;3.712;2022-09-30T13:27:49;20.10;99.90
21199;DHT22;10757;51.038;3.712;2022-09-30T13:30:35;20.10;99.90
21199;DHT22;10757;51.038;3.712;2022-09-30T13:35:55;20.00;99.90
21199;DHT22;10757;51.038;3.712;2022-09-30T13:38:37;19.60;99.90
21199;DHT22;10757;51.038;3.712;2022-09-30T13:41:25;19.40;99.90
21199;DHT22;10757;51.038;3.712;2022-09-30T13:44:15;19.60;99.90
21199;DHT22;10757;51.038;3.712;2022-09-30T13:47:19;19.80;99.90
21199;DHT22;10757;51.038;3.712;2022-09-30T13:53:40;20.00;99.90
21199;DHT22;10757;51.038;3.712;2022-09-30T13:56:18;20.00;99.90
21199;DHT22;10757;51.038;3.712;2022-09-30T14:11:35;19.70;99.90
21199;DHT22;10757;51.038;3.712;2022-09-30T14:14:37;19.40;99.90
21199;DHT22;10757;51.038;3.712;2022-09-30T14:23:18;19.20;99.90
21199;DHT22;10757;51.038;3.712;2022-09-30T14:32:28;19.20;99.90
21199;DHT22;10757;51.038;3.712;2022-09-30T14:35:08;19.20;99.90
21199;DHT22;10757;51.038;3.712;2022-09-30T14:37:57;19.20;99.90
21199;DHT22;10757;51.038;3.712;2022-09-30T14:40:48;19.40;99.90
21199;DHT22;10757;51.038;3.712;2022-09-30T14:43:34;19.30;99.90
21199;DHT22;10757;51.038;3.712;2022-09-30T14:46:09;19.40;99.90
21199;DHT22;10757;51.038;3.712;2022-09-30T14:48:49;19.40;99.90
21199;DHT22;10757;51.038;3.712;2022-09-30T14:51:36;19.30;99.90
21199;DHT22;10757;51.038;3.712;2022-09-30T14:54:02;19.10;99.90
21199;DHT22;10757;51.038;3.712;2022-09-30T14:56:36;19.10;99.90
21199;DHT22;10757;51.038;3.712;2022-09-30T14:59:18;19.20;99.90
21199;DHT22;10757;51.038;3.712;2022-09-30T15:01:49;19.10;99.90
21199;DHT22;10757;51.038;3.712;2022-09-30T15:04:48;19.10;99.90
21199;DHT22;10757;51.038;3.712;2022-09-30T15:07:25;18.90;99.90
21199;DHT22;10757;51.038;3.712;2022-09-30T15:10:02;18.80;99.90
21199;DHT22;10757;51.038;3.712;2022-09-30T15:12:35;18.90;99.90
21199;DHT22;10757;51.038;3.712;2022-09-30T15:15:36;19.00;99.90
21199;DHT22;10757;51.038;3.712;2022-09-30T15:18:31;19.00;99.90
21199;DHT22;10757;51.038;3.712;2022-09-30T15:21:25;19.10;99.90
21199;DHT22;10757;51.038;3.712;2022-09-30T15:23:57;19.00;99.90
21199;DHT22;10757;51.038;3.712;2022-09-30T15:26:30;18.90;99.90
21199;DHT22;10757;51.038;3.712;2022-09-30T15:29:03;18.90;99.90
21199;DHT22;10757;51.038;3.712;2022-09-30T15:31:48;18.70;99.90
21199;DHT22;10757;51.038;3.712;2022-09-30T15:34:25;18.80;99.90
21199;DHT22;10757;51.038;3.712;2022-09-30T15:37:23;18.80;99.90
21199;DHT22;10757;51.038;3.712;2022-09-30T15:39:50;18.70;99.90
21199;DHT22;10757;51.038;3.712;2022-09-30T15:42:55;18.60;99.90
21199;DHT22;10757;51.038;3.712;2022-09-30T15:45:33;18.40;99.90
21199;DHT22;10757;51.038;3.712;2022-09-30T15:50:58;18.10;99.90
21199;DHT22;10757;51.038;3.712;2022-09-30T15:53:44;18.00;99.90
21199;DHT22;10757;51.038;3.712;2022-09-30T15:56:35;18.10;99.90
21199;DHT22;10757;51.038;3.712;2022-09-30T16:02:13;18.00;99.90
21199;DHT22;10757;51.038;3.712;2022-09-30T16:04:39;18.10;99.90
21199;DHT22;10757;51.038;3.712;2022-09-30T16:07:09;17.90;99.90
21199;DHT22;10757;51.038;3.712;2022-09-30T16:09:39;17.80;99.90
21199;DHT22;10757;51.038;3.712;2022-09-30T16:14:52;18.00;99.90
21199;DHT22;10757;51.038;3.712;2022-09-30T16:17:36;17.90;99.90
21199;DHT22;10757;51.038;3.712;2022-09-30T16:20:20;17.90;99.90
21199;DHT22;10757;51.038;3.712;2022-09-30T16:22:49;17.80;99.90
21199;DHT22;10757;51.038;3.712;2022-09-30T16:25:24;17.80;99.90
21199;DHT22;10757;51.038;3.712;2022-09-30T16:30:31;17.70;99.90
21199;DHT22;10757;51.038;3.712;2022-09-30T16:33:01;17.70;99.90
21199;DHT22;10757;51.038;3.712;2022-09-30T16:35:33;17.70;99.90
21199;DHT22;10757;51.038;3.712;2022-09-30T16:38:04;17.70;99.90
21199;DHT22;10757;51.038;3.712;2022-09-30T16:40:34;17.70;99.90
21199;DHT22;10757;51.038;3.712;2022-09-30T16:43:02;17.40;99.90
21199;DHT22;10757;51.038;3.712;2022-09-30T16:45:37;17.50;99.90
21199;DHT22;10757;51.038;3.712;2022-09-30T16:48:13;17.50;99.90
21199;DHT22;10757;51.038;3.712;2022-09-30T16:50:49;17.30;99.90
21199;DHT22;10757;51.038;3.712;2022-09-30T16:53:18;17.20;99.90
21199;DHT22;10757;51.038;3.712;2022-09-30T16:55:45;17.10;99.90
21199;DHT22;10757;51.038;3.712;2022-09-30T16:58:13;17.20;99.90
21199;DHT22;10757;51.038;3.712;2022-09-30T17:00:44;17.10;99.90
21199;DHT22;10757;51.038;3.712;2022-09-30T17:03:13;17.00;99.90
21199;DHT22;10757;51.038;3.712;2022-09-30T17:05:46;16.90;99.90
21199;DHT22;10757;51.038;3.712;2022-09-30T17:08:27;16.80;99.90
21199;DHT22;10757;51.038;3.712;2022-09-30T17:10:55;16.80;99.90
21199;DHT22;10757;51.038;3.712;2022-09-30T17:13:27;16.80;99.90
21199;DHT22;10757;51.038;3.712;2022-09-30T17:15:55;16.90;99.90
21199;DHT22;10757;51.038;3.712;2022-09-30T17:18:21;16.90;99.90
21199;DHT22;10757;51.038;3.712;2022-09-30T17:20:48;16.90;99.90
21199;DHT22;10757;51.038;3.712;2022-09-30T17:23:23;16.70;99.90
21199;DHT22;10757;51.038;3.712;2022-09-30T17:25:51;16.70;99.90
21199;DHT22;10757;51.038;3.712;2022-09-30T17:28:17;16.70;99.90
21199;DHT22;10757;51.038;3.712;2022-09-30T17:30:44;16.50;99.90
21199;DHT22;10757;51.038;3.712;2022-09-30T17:33:12;16.50;99.90
21199;DHT22;10757;51.038;3.712;2022-09-30T17:35:39;16.50;99.90
21199;DHT22;10757;51.038;3.712;2022-09-30T17:38:12;16.50;99.90
21199;DHT22;10757;51.038;3.712;2022-09-30T17:40:38;16.50;99.90
21199;DHT22;10757;51.038;3.712;2022-09-30T17:43:23;16.40;99.90
21199;DHT22;10757;51.038;3.712;2022-09-30T17:45:49;16.40;99.90
21199;DHT22;10757;51.038;3.712;2022-09-30T17:48:16;16.30;99.90
21199;DHT22;10757;51.038;3.712;2022-09-30T17:50:54;16.40;99.90
21199;DHT22;10757;51.038;3.712;2022-09-30T17:53:23;16.50;99.90
21199;DHT22;10757;51.038;3.712;2022-09-30T17:56:01;16.50;99.90
21199;DHT22;10757;51.038;3.712;2022-09-30T17:58:43;16.50;99.90
21199;DHT22;10757;51.038;3.712;2022-09-30T18:01:15;16.30;99.90
21199;DHT22;10757;51.038;3.712;2022-09-30T18:03:44;16.20;99.90
21199;DHT22;10757;51.038;3.712;2022-09-30T18:06:15;16.20;99.90
21199;DHT22;10757;51.038;3.712;2022-09-30T18:08:50;16.20;99.90
21199;DHT22;10757;51.038;3.712;2022-09-30T18:11:32;16.20;99.90
21199;DHT22;10757;51.038;3.712;2022-09-30T18:14:09;16.40;99.90
21199;DHT22;10757;51.038;3.712;2022-09-30T18:16:35;16.20;99.90
21199;DHT22;10757;51.038;3.712;2022-09-30T18:19:04;16.30;99.90
21199;DHT22;10757;51.038;3.712;2022-09-30T18:21:32;16.30;99.90
21199;DHT22;10757;51.038;3.712;2022-09-30T18:24:04;16.10;99.90
21199;DHT22;10757;51.038;3.712;2022-09-30T18:26:32;16.30;99.90
21199;DHT22;10757;51.038;3.712;2022-09-30T18:29:10;16.30;99.90
21199;DHT22;10757;51.038;3.712;2022-09-30T18:31:42;16.20;99.90
21199;DHT22;10757;51.038;3.712;2022-09-30T18:34:10;16.30;99.90
21199;DHT22;10757;51.038;3.712;2022-09-30T18:36:40;16.20;99.90
21199;DHT22;10757;51.038;3.712;2022-09-30T18:39:20;16.10;99.90
21199;DHT22;10757;51.038;3.712;2022-09-30T18:41:49;16.10;99.90
21199;DHT22;10757;51.038;3.712;2022-09-30T18:44:24;16.10;99.90
21199;DHT22;10757;51.038;3.712;2022-09-30T18:46:58;16.10;99.90
21199;DHT22;10757;51.038;3.712;2022-09-30T18:49:24;16.10;99.90
21199;DHT22;10757;51.038;3.712;2022-09-30T18:51:50;16.10;99.90
21199;DHT22;10757;51.038;3.712;2022-09-30T18:54:18;16.00;99.90
21199;DHT22;10757;51.038;3.712;2022-09-30T18:56:44;16.00;99.90
21199;DHT22;10757;51.038;3.712;2022-09-30T18:59:14;16.00;99.90
21199;DHT22;10757;51.038;3.712;2022-09-30T19:01:51;16.00;99.90
21199;DHT22;10757;51.038;3.712;2022-09-30T19:04:20;15.90;99.90
21199;DHT22;10757;51.038;3.712;2022-09-30T19:06:49;15.80;99.90
21199;DHT22;10757;51.038;3.712;2022-09-30T19:09:15;15.90;99.90
21199;DHT22;10757;51.038;3.712;2022-09-30T19:11:44;15.90;99.90
21199;DHT22;10757;51.038;3.712;2022-09-30T19:14:21;15.90;99.90
21199;DHT22;10757;51.038;3.712;2022-09-30T19:17:03;15.80;99.90
21199;DHT22;10757;51.038;3.712;2022-09-30T19:19:30;15.90;99.90
21199;DHT22;10757;51.038;3.712;2022-09-30T19:21:56;15.90;99.90
21199;DHT22;10757;51.038;3.712;2022-09-30T19:24:31;15.90;99.90
21199;DHT22;10757;51.038;3.712;2022-09-30T19:27:26;15.90;99.90
21199;DHT22;10757;51.038;3.712;2022-09-30T19:29:52;15.90;99.90
21199;DHT22;10757;51.038;3.712;2022-09-30T19:32:21;15.90;99.90
21199;DHT22;10757;51.038;3.712;2022-09-30T19:34:46;16.00;99.90
21199;DHT22;10757;51.038;3.712;2022-09-30T19:37:22;15.90;99.90
21199;DHT22;10757;51.038;3.712;2022-09-30T19:39:48;15.90;99.90
21199;DHT22;10757;51.038;3.712;2022-09-30T19:42:13;15.90;99.90